Time;durP1;ratioP1;P1;durP2;ratioP2;P2;SDS_P1;SDS_P2;PMS_P1;PMS_P2;Temp;Humidity;BMP_temperature;BMP_pressure;BME280_temperature;BME280_humidity;BME280_pressure;Samples;Min_cycle;Max_cycle;Signal;HPM_P1;HPM_P2
2022/12/22 03:25:53;;;;;;;;;;;;;;;5.99;100.00;100188.31;5061513;28;19933;-75
2022/12/22 03:28:20;;;;;;;;;;;;;;;5.98;100.00;100182.22;5052388;28;19935;-75
2022/12/22 03:30:45;;;;;;;;;;;;;;;6.00;100.00;100195.31;5063632;28;19985;-75
2022/12/22 03:33:10;;;;;;;;;;;;;;;5.99;100.00;100188.31;5040470;28;19928;-75
2022/12/22 03:35:36;;;;;;;;;;;;;;;6.00;100.00;100189.16;5061774;28;19998;-75
2022/12/22 03:38:02;;;;;;;;;;;;;;;5.97;100.00;100185.75;5062093;28;19928;-74
2022/12/22 03:40:28;;;;;;;;;;;;;;;5.97;100.00;100190.13;5061380;28;20141;-74
2022/12/22 03:48:22;;;;;;;;;;;;;;;5.95;100.00;100170.94;5045882;28;19943;-75
2022/12/22 03:50:47;;;;;;;;;;;;;;;5.94;100.00;100175.34;5063744;28;19940;-75
2022/12/22 03:53:12;;;;;;;;;;;;;;;5.94;100.00;100179.75;5060170;28;20361;-75
2022/12/22 03:55:38;;;;;;;;;;;;;;;5.96;100.00;100184.03;5052693;28;19932;-75
2022/12/22 03:58:03;;;;;;;;;;;;;;;5.98;100.00;100181.34;5041920;28;21522;-75
2022/12/22 04:00:28;;;;;;;;;;;;;;;5.97;100.00;100180.50;5062776;28;20019;-75
2022/12/22 04:02:56;;;;;;;;;;;;;;;5.96;100.00;100183.16;5061340;28;19932;-76
2022/12/22 04:05:21;;;;;;;;;;;;;;;5.95;100.00;100186.72;5059856;28;19952;-76
2022/12/22 04:07:46;;;;;;;;;;;;;;;5.93;100.00;100183.28;5061067;28;19928;-76
2022/12/22 04:12:56;;;;;;;;;;;;;;;5.93;100.00;100183.28;5060827;28;20268;-75
2022/12/22 04:15:22;;;;;;;;;;;;;;;5.92;100.00;100182.44;5057885;28;20647;-76
2022/12/22 04:17:48;;;;;;;;;;;;;;;5.91;100.00;100178.09;5042776;28;20295;-76
2022/12/22 04:20:13;;;;;;;;;;;;;;;5.90;100.00;100162.38;5063326;28;19932;-75
2022/12/22 04:22:39;;;;;;;;;;;;;;;5.89;100.00;100168.56;5060835;28;19957;-76
2022/12/22 04:25:05;;;;;;;;;;;;;;;5.87;100.00;100159.88;5061721;28;19932;-76
2022/12/22 04:27:30;;;;;;;;;;;;;;;5.85;100.00;100167.81;5061591;28;20656;-75
2022/12/22 04:29:55;;;;;;;;;;;;;;;5.83;100.00;100173.09;5062252;28;19939;-75
2022/12/22 04:32:21;;;;;;;;;;;;;;;5.82;100.00;100170.53;5061639;28;20005;-76
2022/12/22 04:34:46;;;;;;;;;;;;;;;5.83;100.00;100172.28;5061888;28;20050;-76
2022/12/22 04:37:11;;;;;;;;;;;;;;;5.84;100.00;100173.97;5055387;28;19974;-76
2022/12/22 04:39:37;;;;;;;;;;;;;;;5.84;100.00;100176.59;5067302;28;21469;-76
2022/12/22 04:42:02;;;;;;;;;;;;;;;5.84;100.00;100177.44;5067584;28;19989;-75
2022/12/22 04:44:27;;;;;;;;;;;;;;;5.82;100.00;100175.78;5065668;28;19988;-76
2022/12/22 04:46:53;;;;;;;;;;;;;;;5.81;100.00;100172.31;5048022;28;20618;-75
2022/12/22 04:49:18;;;;;;;;;;;;;;;5.81;100.00;100174.94;5066580;28;19958;-76
2022/12/22 04:51:44;;;;;;;;;;;;;;;5.81;100.00;100177.56;5047623;28;20035;-75
2022/12/22 04:54:10;;;;;;;;;;;;;;;5.81;100.00;100169.69;5065291;28;19942;-76
2022/12/22 04:56:35;;;;;;;;;;;;;;;5.80;100.00;100165.34;5066541;28;19934;-76
2022/12/22 04:59:00;;;;;;;;;;;;;;;5.81;100.00;100174.94;5066775;28;19979;-76
2022/12/22 05:01:26;;;;;;;;;;;;;;;5.81;100.00;100169.69;5048237;28;19932;-75
2022/12/22 05:03:51;;;;;;;;;;;;;;;5.81;100.00;100174.94;5066009;28;19951;-76
2022/12/22 05:06:16;;;;;;;;;;;;;;;5.82;100.00;100179.28;5066293;28;21421;-75
2022/12/22 05:08:42;;;;;;;;;;;;;;;5.80;100.00;100177.63;5065391;28;19928;-76
2022/12/22 05:11:07;;;;;;;;;;;;;;;5.81;100.00;100176.69;5065939;28;19932;-75
2022/12/22 05:13:33;;;;;;;;;;;;;;;5.80;100.00;100183.75;5063889;28;20666;-75
2022/12/22 05:16:08;;;;;;;;;;;;;;;5.80;100.00;100177.63;5043952;28;19928;-76
2022/12/22 05:18:35;;;;;;;;;;;;;;;5.78;100.00;100174.19;5048387;28;20953;-76
2022/12/22 05:21:08;;;;;;;;;;;;;;;5.78;100.00;100176.81;5055739;28;20104;-76
2022/12/22 05:23:33;;;;;;;;;;;;;;;5.78;100.00;100184.69;5063675;28;20591;-76
2022/12/22 05:25:59;;;;;;;;;;;;;;;5.78;100.00;100185.53;5061844;28;19934;-75
2022/12/22 05:28:24;;;;;;;;;;;;;;;5.80;100.00;100190.75;5061499;28;19928;-76
2022/12/22 05:30:49;;;;;;;;;;;;;;;5.79;100.00;100182.03;5052257;28;19947;-76
2022/12/22 05:33:15;;;;;;;;;;;;;;;5.82;100.00;100191.53;5035771;28;19932;-75
2022/12/22 05:35:40;;;;;;;;;;;;;;;5.82;100.00;100195.03;5063288;28;20078;-76
2022/12/22 05:38:06;;;;;;;;;;;;;;;5.84;100.00;100189.75;5065457;28;19985;-76
2022/12/22 05:40:31;;;;;;;;;;;;;;;5.83;100.00;100188.88;5065772;28;20066;-76
2022/12/22 05:42:56;;;;;;;;;;;;;;;5.84;100.00;100180.06;5065974;28;20200;-75
2022/12/22 05:45:22;;;;;;;;;;;;;;;5.84;100.00;100174.81;5051454;28;19932;-75
2022/12/22 05:47:51;;;;;;;;;;;;;;;5.84;100.00;100174.81;5065008;28;19957;-75
2022/12/22 05:50:18;;;;;;;;;;;;;;;5.82;100.00;100171.41;5046526;28;19932;-75
2022/12/22 05:52:43;;;;;;;;;;;;;;;5.82;100.00;100192.41;5066086;28;20058;-75
2022/12/22 05:55:09;;;;;;;;;;;;;;;5.80;100.00;100193.38;5063789;28;20488;-76
2022/12/22 05:57:34;;;;;;;;;;;;;;;5.78;100.00;100188.16;5048259;28;19928;-75
2022/12/22 06:00:00;;;;;;;;;;;;;;;5.77;100.00;100183.84;5064732;28;19993;-76
2022/12/22 06:02:25;;;;;;;;;;;;;;;5.74;100.00;100186.59;5043327;28;19929;-75
2022/12/22 06:04:51;;;;;;;;;;;;;;;5.71;100.00;100186.69;5066119;28;20082;-75
2022/12/22 06:07:16;;;;;;;;;;;;;;;5.69;100.00;100193.75;5063611;28;19963;-75
2022/12/22 06:09:41;;;;;;;;;;;;;;;5.64;100.00;100186.06;5062293;28;19943;-76
2022/12/22 06:12:07;;;;;;;;;;;;;;;5.61;100.00;100185.31;5061174;28;20375;-75
2022/12/22 06:14:32;;;;;;;;;;;;;;;5.57;100.00;100188.03;5044938;28;19935;-75
2022/12/22 06:16:58;;;;;;;;;;;;;;;5.56;100.00;100195.97;5063973;28;20265;-75
2022/12/22 06:19:23;;;;;;;;;;;;;;;5.52;100.00;100189.97;5062239;28;19971;-75
2022/12/22 06:21:49;;;;;;;;;;;;;;;5.50;100.00;100190.94;5047656;28;19924;-75
2022/12/22 06:24:14;;;;;;;;;;;;;;;5.46;100.00;100191.94;5061732;28;20422;-76
2022/12/22 06:26:40;;;;;;;;;;;;;;;5.38;100.00;100195.69;5064792;28;19958;-76
2022/12/22 06:29:05;;;;;;;;;;;;;;;5.34;100.00;100196.69;5041727;28;19928;-76
2022/12/22 06:31:30;;;;;;;;;;;;;;;5.30;100.00;100201.19;5060792;28;19959;-75
2022/12/22 06:33:56;;;;;;;;;;;;;;;5.28;100.00;100197.75;5061307;28;19928;-75
2022/12/22 06:36:22;;;;;;;;;;;;;;;5.24;100.00;100195.31;5062054;28;19932;-76
2022/12/22 06:38:47;;;;;;;;;;;;;;;5.20;100.00;100212.06;5061509;28;20406;-76
2022/12/22 06:41:12;;;;;;;;;;;;;;;5.15;100.00;100206.97;5061807;28;19932;-76
2022/12/22 06:43:38;;;;;;;;;;;;;;;5.09;100.00;100207.16;5063319;28;19928;-75
2022/12/22 06:46:03;;;;;;;;;;;;;;;5.02;100.00;100211.75;5061446;28;19979;-75
2022/12/22 06:48:29;;;;;;;;;;;;;;;4.95;100.00;100215.50;5063657;28;19963;-75
2022/12/22 06:50:58;;;;;;;;;;;;;;;4.89;100.00;100217.41;5061641;28;20005;-75
2022/12/22 06:53:23;;;;;;;;;;;;;;;4.86;100.00;100216.63;5061505;28;19938;-75
2022/12/22 06:55:48;;;;;;;;;;;;;;;4.83;100.00;100216.72;5042927;28;19924;-75
2022/12/22 06:58:14;;;;;;;;;;;;;;;4.79;100.00;100217.75;5062053;28;19976;-73
2022/12/22 07:00:39;;;;;;;;;;;;;;;4.75;100.00;100219.59;5061177;28;19932;-74
2022/12/22 07:03:05;;;;;;;;;;;;;;;4.72;100.00;100224.91;5041506;28;20020;-74
2022/12/22 07:05:32;;;;;;;;;;;;;;;4.69;100.00;100219.78;5043108;28;22228;-73
2022/12/22 07:07:58;;;;;;;;;;;;;;;4.64;100.00;100230.44;5063412;28;20008;-73
2022/12/22 07:10:56;;;;;;;;;;;;;;;4.56;100.00;100245.50;5062263;28;19951;-74
2022/12/22 07:13:18;;;;;;;;;;;;;;;4.45;100.00;100251.94;5048119;28;20817;-73
2022/12/22 07:15:44;;;;;;;;;;;;;;;4.38;100.00;100250.41;5064513;28;19932;-73
2022/12/22 07:18:10;;;;;;;;;;;;;;;4.32;100.00;100248.81;5045629;28;19929;-74
2022/12/22 07:20:35;;;;;;;;;;;;;;;4.27;100.00;100250.72;5063590;28;24289;-74
2022/12/22 07:23:01;;;;;;;;;;;;;;;4.22;100.00;100247.38;5062449;28;20031;-74
2022/12/22 07:25:26;;;;;;;;;;;;;;;4.18;100.00;100246.59;5064108;28;19950;-74
2022/12/22 07:27:51;;;;;;;;;;;;;;;4.15;100.00;100251.06;5066403;28;20410;-73
2022/12/22 07:30:17;;;;;;;;;;;;;;;4.11;100.00;100259.91;5063792;28;19960;-74
2022/12/22 07:32:42;;;;;;;;;;;;;;;4.08;100.00;100263.47;5062514;28;19970;-74
2022/12/22 07:35:08;;;;;;;;;;;;;;;4.07;100.00;100269.59;5028598;28;19961;-74
2022/12/22 07:37:33;;;;;;;;;;;;;;;4.06;100.00;100262.66;5061599;28;20441;-74
2022/12/22 07:39:58;;;;;;;;;;;;;;;4.04;100.00;100269.72;5042845;28;20046;-75
2022/12/22 07:45:09;;;;;;;;;;;;;;;4.00;100.00;100273.28;5044615;28;20048;-74
2022/12/22 07:47:34;;;;;;;;;;;;;;;3.99;100.00;100279.44;5047908;28;19936;-74
2022/12/22 07:52:43;;;;;;;;;;;;;;;3.94;100.00;100279.56;5041462;28;19959;-74
2022/12/22 07:55:09;;;;;;;;;;;;;;;3.92;100.00;100281.38;5058507;28;20022;-73
2022/12/22 07:57:34;;;;;;;;;;;;;;;3.91;100.00;100280.50;5059332;28;20153;-73
2022/12/22 08:00:00;;;;;;;;;;;;;;;3.90;100.00;100284.03;5058160;28;19932;-74
2022/12/22 08:02:25;;;;;;;;;;;;;;;3.88;100.00;100280.56;5055675;28;19932;-73
2022/12/22 08:04:51;;;;;;;;;;;;;;;3.87;100.00;100289.34;5041304;28;20016;-73
2022/12/22 08:07:16;;;;;;;;;;;;;;;3.86;100.00;100292.84;5037172;28;19939;-74
2022/12/22 08:09:42;;;;;;;;;;;;;;;3.85;100.00;100293.75;5055682;28;20039;-73
2022/12/22 08:12:07;;;;;;;;;;;;;;;3.85;100.00;100296.38;5045020;28;21411;-73
2022/12/22 08:14:32;;;;;;;;;;;;;;;3.85;100.00;100304.25;5046625;28;20445;-73
2022/12/22 08:16:58;;;;;;;;;;;;;;;3.84;100.00;100297.28;5047196;28;19935;-73
2022/12/22 08:19:23;;;;;;;;;;;;;;;3.85;100.00;100296.38;5051716;28;19945;-73
2022/12/22 08:21:49;;;;;;;;;;;;;;;3.86;100.00;100292.03;5062251;28;19928;-73
2022/12/22 08:24:14;;;;;;;;;;;;;;;3.86;100.00;100300.72;5043283;28;19932;-74
2022/12/22 08:26:40;;;;;;;;;;;;;;;3.84;100.00;100305.16;5060084;28;19963;-73
2022/12/22 08:29:08;;;;;;;;;;;;;;;3.82;100.00;100303.47;5046336;28;21867;-74
2022/12/22 08:31:33;;;;;;;;;;;;;;;3.78;100.00;100311.41;5058597;28;19932;-74
2022/12/22 08:33:59;;;;;;;;;;;;;;;3.76;100.00;100317.59;5045176;28;19924;-74
2022/12/22 08:36:24;;;;;;;;;;;;;;;3.75;100.00;100316.72;5029548;28;19970;-74
2022/12/22 08:38:49;;;;;;;;;;;;;;;3.75;100.00;100316.72;5063889;28;20291;-74
2022/12/22 08:41:15;;;;;;;;;;;;;;;3.77;100.00;100316.69;5059253;28;19932;-74
2022/12/22 08:43:40;;;;;;;;;;;;;;;3.77;100.00;100316.69;5043850;28;20657;-73
2022/12/22 08:46:06;;;;;;;;;;;;;;;3.76;100.00;100312.34;5059952;28;19924;-73
2022/12/22 08:48:31;;;;;;;;;;;;;;;3.78;100.00;100318.41;5058939;28;19924;-73
2022/12/22 08:50:57;;;;;;;;;;;;;;;3.81;100.00;100323.53;5041182;28;19928;-73
2022/12/22 08:53:22;;;;;;;;;;;;;;;3.82;100.00;100322.66;5059797;28;19932;-73
2022/12/22 08:55:52;;;;;;;;;;;;;;;3.83;100.00;100327.00;5061691;28;19928;-73
2022/12/22 08:58:17;;;;;;;;;;;;;;;3.84;100.00;100326.09;5044103;28;19928;-74
2022/12/22 09:00:43;;;;;;;;;;;;;;;3.86;100.00;100329.53;5060091;28;21958;-74
2022/12/22 09:03:08;;;;;;;;;;;;;;;3.88;100.00;100338.19;5060560;28;19936;-73
2022/12/22 09:05:37;;;;;;;;;;;;;;;3.91;100.00;100337.25;5058595;28;19931;-72
2022/12/22 09:08:02;;;;;;;;;;;;;;;3.92;100.00;100339.00;5057775;28;20832;-73
2022/12/22 09:10:28;;;;;;;;;;;;;;;3.95;100.00;100341.53;5055228;28;19994;-74
2022/12/22 09:12:53;;;;;;;;;;;;;;;3.98;100.00;100335.34;5040208;28;19977;-74
2022/12/22 09:15:19;;;;;;;;;;;;;;;4.00;100.00;100330.94;5056539;28;19932;-73
2022/12/22 09:17:44;;;;;;;;;;;;;;;4.03;100.00;100333.47;5037146;28;19979;-73
2022/12/22 09:20:10;;;;;;;;;;;;;;;4.08;100.00;100334.19;5043623;28;19932;-72
2022/12/22 09:22:35;;;;;;;;;;;;;;;4.12;100.00;100343.72;5056482;28;19932;-74
2022/12/22 09:25:01;;;;;;;;;;;;;;;4.17;100.00;100354.94;5060528;28;20309;-74
2022/12/22 09:27:26;;;;;;;;;;;;;;;4.23;100.00;100353.06;5043156;28;20015;-73
2022/12/22 09:29:52;;;;;;;;;;;;;;;4.29;100.00;100358.09;5055425;28;19958;-74
2022/12/22 09:32:17;;;;;;;;;;;;;;;4.33;100.00;100358.00;5044792;28;19938;-73
2022/12/22 09:34:42;;;;;;;;;;;;;;;4.37;100.00;100350.91;5060559;28;20500;-74
2022/12/22 09:37:08;;;;;;;;;;;;;;;4.39;100.00;100350.84;5061495;28;19932;-74
2022/12/22 09:39:33;;;;;;;;;;;;;;;4.41;100.00;100352.53;5060863;28;19933;-75
2022/12/22 09:41:59;;;;;;;;;;;;;;;4.43;100.00;100350.75;5061613;28;19936;-74
2022/12/22 09:44:31;;;;;;;;;;;;;;;4.47;100.00;100352.38;5030397;28;19928;-74
2022/12/22 09:46:57;;;;;;;;;;;;;;;4.54;100.00;100349.56;5059238;28;19952;-74
2022/12/22 09:49:23;;;;;;;;;;;;;;;4.59;100.00;100350.31;5030352;28;19977;-74
2022/12/22 09:51:50;;;;;;;;;;;;;;;4.62;100.00;100350.22;5043185;28;19928;-75
2022/12/22 09:54:15;;;;;;;;;;;;;;;4.67;100.00;100352.69;5042339;28;20409;-74
2022/12/22 09:56:40;;;;;;;;;;;;;;;4.66;100.00;100344.00;5059162;28;19993;-75
2022/12/22 09:59:10;;;;;;;;;;;;;;;4.68;100.00;100349.19;5063321;28;19932;-74
2022/12/22 10:01:41;;;;;;;;;;;;;;;4.69;100.00;100354.38;5059748;28;19955;-74
2022/12/22 10:04:19;;;;;;;;;;;;;;;4.70;100.00;100361.38;5046848;28;19939;-76
2022/12/22 10:06:47;;;;;;;;;;;;;;;4.75;100.00;100363.84;5060243;28;19928;-76
2022/12/22 10:09:16;;;;;;;;;;;;;;;4.79;100.00;100359.38;5062900;28;20011;-75
2022/12/22 10:11:48;;;;;;;;;;;;;;;4.81;100.00;100370.66;5061326;28;19959;-76
2022/12/22 10:14:13;;;;;;;;;;;;;;;4.85;100.00;100374.94;5061774;28;19936;-75
2022/12/22 10:16:39;;;;;;;;;;;;;;;4.86;100.00;100369.63;5059910;28;20030;-76
2022/12/22 10:19:09;;;;;;;;;;;;;;;4.88;100.00;100372.22;5058326;28;19924;-76
2022/12/22 10:21:35;;;;;;;;;;;;;;;4.85;100.00;100373.16;5060564;28;19981;-75
2022/12/22 10:24:00;;;;;;;;;;;;;;;4.85;100.00;100373.16;5043511;28;19924;-76
2022/12/22 10:26:27;;;;;;;;;;;;;;;4.85;100.00;100373.16;5042691;28;20016;-76
2022/12/22 10:28:54;;;;;;;;;;;;;;;4.85;100.00;100373.16;5060843;28;20046;-76
2022/12/22 10:31:21;;;;;;;;;;;;;;;4.84;100.00;100360.06;5057861;28;19932;-75
2022/12/22 10:33:48;;;;;;;;;;;;;;;4.84;100.00;100366.19;5060173;28;19928;-76
2022/12/22 10:36:23;;;;;;;;;;;;;;;4.85;100.00;100374.94;5060608;28;19979;-76
2022/12/22 10:38:54;;;;;;;;;;;;;;;4.87;100.00;100365.25;5062194;28;19931;-76
2022/12/22 10:41:20;;;;;;;;;;;;;;;4.89;100.00;100363.44;5058188;28;19924;-76
2022/12/22 10:43:46;;;;;;;;;;;;;;;4.92;100.00;100362.47;5062244;28;20299;-75
2022/12/22 10:46:11;;;;;;;;;;;;;;;4.94;100.00;100372.03;5060374;28;20229;-75
2022/12/22 10:48:37;;;;;;;;;;;;;;;4.94;100.00;100366.78;5057823;28;20179;-75
2022/12/22 10:51:06;;;;;;;;;;;;;;;4.96;100.00;100380.72;5040143;28;19973;-75
2022/12/22 10:53:44;;;;;;;;;;;;;;;4.99;100.00;100379.75;5040543;28;19943;-75
2022/12/22 10:56:17;;;;;;;;;;;;;;;5.02;100.00;100377.91;5043831;28;21149;-75
2022/12/22 10:58:50;;;;;;;;;;;;;;;5.06;100.00;100380.44;5040108;28;20337;-75
2022/12/22 11:01:21;;;;;;;;;;;;;;;5.09;100.00;100390.84;5058386;28;20489;-75
2022/12/22 11:03:47;;;;;;;;;;;;;;;5.11;100.00;100389.91;5043681;28;19928;-75
2022/12/22 11:06:12;;;;;;;;;;;;;;;5.16;100.00;100400.25;5060734;28;20387;-75
2022/12/22 11:08:38;;;;;;;;;;;;;;;5.19;100.00;100401.94;5058916;28;19935;-75
2022/12/22 11:11:09;;;;;;;;;;;;;;;5.22;100.00;100393.97;5059316;28;19932;-75
2022/12/22 11:13:38;;;;;;;;;;;;;;;5.24;100.00;100393.00;5045447;28;19928;-76
2022/12/22 11:16:03;;;;;;;;;;;;;;;5.27;100.00;100381.56;5057149;28;20086;-75
2022/12/22 11:18:48;;;;;;;;;;;;;;;5.28;100.00;100381.50;5059439;28;20396;-75
2022/12/22 11:21:13;;;;;;;;;;;;;;;5.31;100.00;100377.94;5057262;28;20347;-75
2022/12/22 11:23:45;;;;;;;;;;;;;;;5.34;100.00;100374.34;5060356;28;20089;-75
2022/12/22 11:26:29;;;;;;;;;;;;;;;5.37;100.00;100382.13;5056639;28;20386;-74
2022/12/22 11:29:14;;;;;;;;;;;;;;;5.37;100.00;100380.38;5061710;28;19924;-74
2022/12/22 11:31:54;;;;;;;;;;;;;;;5.39;100.00;100378.56;5057038;28;19964;-74
2022/12/22 11:34:23;;;;;;;;;;;;;;;5.43;100.00;100384.56;5057901;28;19939;-74
2022/12/22 11:36:57;;;;;;;;;;;;;;;5.44;100.00;100387.16;5059676;28;19928;-74
2022/12/22 11:39:43;;;;;;;;;;;;;;;5.47;100.00;100380.94;5059559;28;19931;-75
2022/12/22 11:42:27;;;;;;;;;;;;;;;5.50;100.00;100386.09;4999493;28;19930;-74
2022/12/22 11:45:08;;;;;;;;;;;;;;;5.53;100.00;100388.63;5060851;28;20231;-74
2022/12/22 11:47:43;;;;;;;;;;;;;;;5.58;100.00;100384.06;5056602;28;19944;-75
2022/12/22 11:50:09;;;;;;;;;;;;;;;5.60;100.00;100391.06;5041302;28;19987;-75
2022/12/22 11:52:34;;;;;;;;;;;;;;;5.62;100.00;100391.88;5062634;28;20423;-75
2022/12/22 11:55:18;;;;;;;;;;;;;;;5.66;100.00;100388.25;5064153;28;20388;-75
2022/12/22 11:57:50;;;;;;;;;;;;;;;5.67;100.00;100388.16;5059559;28;20456;-75
2022/12/22 12:00:16;;;;;;;;;;;;;;;5.70;100.00;100387.22;5040991;28;20082;-75
2022/12/22 12:03:00;;;;;;;;;;;;;;;5.73;100.00;100396.78;5062795;28;20014;-75
2022/12/22 12:05:28;;;;;;;;;;;;;;;5.76;100.00;100381.78;5062893;28;19931;-75
2022/12/22 12:07:55;;;;;;;;;;;;;;;5.77;100.00;100380.00;5040626;28;19928;-75
2022/12/22 12:10:22;;;;;;;;;;;;;;;5.77;100.00;100385.28;5043854;28;19928;-76
2022/12/22 12:12:53;;;;;;;;;;;;;;;5.77;100.00;100382.63;5058806;28;19967;-75
2022/12/22 12:15:33;;;;;;;;;;;;;;;5.78;100.00;100397.50;5061004;28;21263;-75
2022/12/22 12:17:58;;;;;;;;;;;;;;;5.80;100.00;100391.28;5042354;28;19975;-76
2022/12/22 12:20:24;;;;;;;;;;;;;;;5.82;100.00;100396.47;5061560;28;21773;-76
2022/12/22 12:23:06;;;;;;;;;;;;;;;5.84;100.00;100395.50;5055101;28;19929;-76
2022/12/22 12:25:51;;;;;;;;;;;;;;;5.85;100.00;100391.97;5042319;28;19924;-76
2022/12/22 12:28:23;;;;;;;;;;;;;;;5.89;100.00;100397.97;5041991;28;20383;-76
2022/12/22 12:30:51;;;;;;;;;;;;;;;5.92;100.00;100389.13;5043733;28;19938;-75
2022/12/22 12:33:18;;;;;;;;;;;;;;;5.95;100.00;100396.94;5044695;28;20047;-76
2022/12/22 12:35:49;;;;;;;;;;;;;;;5.99;100.00;100398.53;5044766;28;19928;-76
2022/12/22 12:38:21;;;;;;;;;;;;;;;6.06;100.00;100399.22;5060719;28;19924;-75
2022/12/22 12:40:46;;;;;;;;;;;;;;;6.14;100.00;100393.72;5040226;28;19928;-76
2022/12/22 12:43:12;;;;;;;;;;;;;;;6.20;100.00;100389.09;5062866;28;19923;-75
2022/12/22 12:45:40;;;;;;;;;;;;;;;6.30;100.00;100386.13;5042423;28;20260;-75
2022/12/22 12:48:23;;;;;;;;;;;;;;;6.38;100.00;100386.75;5035331;28;19988;-75
2022/12/22 12:50:49;;;;;;;;;;;;;;;6.47;100.00;100393.44;5062018;28;20364;-76
2022/12/22 12:53:16;;;;;;;;;;;;;;;6.54;100.00;100399.34;5059841;28;19939;-75
2022/12/22 12:55:51;;;;;;;;;;;;;;;6.58;100.00;100396.56;5043782;28;19928;-75
2022/12/22 12:58:37;;;;;;;;;;;;;;;6.64;100.00;100401.59;5061842;28;20017;-75
2022/12/22 13:01:03;;;;;;;;;;;;;;;6.70;100.00;100407.56;5056298;28;21359;-76
2022/12/22 13:03:29;;;;;;;;;;;;;;;6.73;100.00;100396.91;5062154;28;19935;-75
2022/12/22 13:05:55;;;;;;;;;;;;;;;6.75;100.00;100403.00;5057853;28;19928;-77
2022/12/22 13:08:28;;;;;;;;;;;;;;;6.78;100.00;100402.88;5054196;28;19924;-76
2022/12/22 13:10:54;;;;;;;;;;;;;;;6.76;100.00;100394.19;5033384;28;20437;-76
2022/12/22 13:13:23;;;;;;;;;;;;;;;6.77;100.00;100404.63;5061043;28;19929;-76
2022/12/22 13:15:49;;;;;;;;;;;;;;;6.76;100.00;100395.03;5051093;28;19939;-76
2022/12/22 13:18:14;;;;;;;;;;;;;;;6.76;100.00;100395.03;5048325;28;19973;-76
2022/12/22 13:20:39;;;;;;;;;;;;;;;6.76;100.00;100395.03;5059844;28;20287;-75
2022/12/22 13:23:11;;;;;;;;;;;;;;;6.78;100.00;100393.22;5037835;28;19924;-77
2022/12/22 13:25:41;;;;;;;;;;;;;;;6.80;100.00;100390.50;5061593;28;19929;-77
2022/12/22 13:28:09;;;;;;;;;;;;;;;6.82;100.00;100396.59;5061561;28;20495;-76
2022/12/22 13:30:35;;;;;;;;;;;;;;;6.84;100.00;100397.38;5041003;28;20028;-77
2022/12/22 13:33:01;;;;;;;;;;;;;;;6.87;100.00;100397.25;5039890;28;19937;-77
2022/12/22 13:35:37;;;;;;;;;;;;;;;6.93;100.00;100404.94;5043135;28;19928;-76
2022/12/22 13:38:02;;;;;;;;;;;;;;;7.02;100.00;100411.63;5041848;28;20055;-78
2022/12/22 13:40:29;;;;;;;;;;;;;;;7.11;100.00;100418.31;5058432;28;19932;-77
2022/12/22 13:42:56;;;;;;;;;;;;;;;7.16;100.00;100412.88;5040851;28;20118;-77
2022/12/22 13:45:28;;;;;;;;;;;;;;;7.18;100.00;100411.91;5043987;28;20532;-77
2022/12/22 13:47:53;;;;;;;;;;;;;;;7.19;100.00;100410.97;5055861;28;19935;-77
2022/12/22 13:50:20;;;;;;;;;;;;;;;7.20;100.00;100415.31;5042195;28;19928;-77
2022/12/22 13:52:46;;;;;;;;;;;;;;;7.22;100.00;100417.91;5039757;28;20610;-78
2022/12/22 13:55:12;;;;;;;;;;;;;;;7.28;100.00;100416.81;5037652;28;19943;-77
2022/12/22 13:57:38;;;;;;;;;;;;;;;7.29;100.00;100416.75;5059368;28;19924;-77
2022/12/22 14:00:03;;;;;;;;;;;;;;;7.30;100.00;100409.72;5062776;28;19926;-77
2022/12/22 14:02:31;;;;;;;;;;;;;;;7.30;100.00;100409.72;5048341;28;19924;-77
2022/12/22 14:05:06;;;;;;;;;;;;;;;7.30;100.00;100409.72;5057559;28;20594;-76
2022/12/22 14:07:32;;;;;;;;;;;;;;;7.28;100.00;100396.63;5058434;28;20034;-76
2022/12/22 14:09:57;;;;;;;;;;;;;;;7.26;100.00;100406.34;5039654;28;19928;-76
2022/12/22 14:12:24;;;;;;;;;;;;;;;7.23;100.00;100409.09;5058760;28;19973;-76
2022/12/22 14:14:50;;;;;;;;;;;;;;;7.20;100.00;100409.22;5043671;28;19978;-76
2022/12/22 14:17:21;;;;;;;;;;;;;;;7.16;100.00;100399.72;5037794;28;20039;-76
2022/12/22 14:19:51;;;;;;;;;;;;;;;7.12;100.00;100406.88;5058051;28;19953;-75
2022/12/22 14:22:25;;;;;;;;;;;;;;;7.09;100.00;100412.28;5040105;28;20314;-76
2022/12/22 14:24:54;;;;;;;;;;;;;;;7.06;100.00;100401.84;5059320;28;20268;-76
2022/12/22 14:27:34;;;;;;;;;;;;;;;7.02;100.00;100401.09;5035067;28;19924;-75
2022/12/22 14:30:00;;;;;;;;;;;;;;;6.98;100.00;100399.47;5041406;28;19932;-74
2022/12/22 14:32:34;;;;;;;;;;;;;;;6.92;100.00;100405.00;5039924;28;19925;-75
2022/12/22 14:34:59;;;;;;;;;;;;;;;6.87;100.00;100391.16;5044042;28;19928;-76
2022/12/22 14:37:24;;;;;;;;;;;;;;;6.82;100.00;100391.31;5061041;28;20316;-76
2022/12/22 14:39:53;;;;;;;;;;;;;;;6.78;100.00;100398.47;5056268;28;19933;-75
2022/12/22 14:42:19;;;;;;;;;;;;;;;6.74;100.00;100398.63;5058517;28;19921;-74
2022/12/22 14:44:47;;;;;;;;;;;;;;;6.70;100.00;100391.78;5060070;28;20056;-74
2022/12/22 14:47:16;;;;;;;;;;;;;;;6.68;100.00;100388.31;5057499;28;20385;-75
2022/12/22 14:49:44;;;;;;;;;;;;;;;6.63;100.00;100389.38;5061086;28;20027;-74
2022/12/22 14:52:22;;;;;;;;;;;;;;;6.59;100.00;100386.91;5061036;28;19916;-74
2022/12/22 14:54:50;;;;;;;;;;;;;;;6.54;100.00;100394.09;5048160;28;19928;-75
2022/12/22 14:57:18;;;;;;;;;;;;;;;6.49;100.00;100394.25;5041288;28;19928;-74
2022/12/22 14:59:57;;;;;;;;;;;;;;;6.43;100.00;100391.84;5057503;28;19932;-75
2022/12/22 15:02:26;;;;;;;;;;;;;;;6.38;100.00;100389.38;5056639;28;19924;-74
2022/12/22 15:05:07;;;;;;;;;;;;;;;6.33;100.00;100386.88;5024498;28;20018;-75
2022/12/22 15:07:41;;;;;;;;;;;;;;;6.28;100.00;100394.09;5059029;28;19973;-74
2022/12/22 15:10:07;;;;;;;;;;;;;;;6.24;100.00;100395.09;5056944;28;20065;-74
2022/12/22 15:12:33;;;;;;;;;;;;;;;6.20;100.00;100394.34;5029705;28;20212;-75
2022/12/22 15:14:58;;;;;;;;;;;;;;;6.19;100.00;100397.03;5037876;28;19990;-75
2022/12/22 15:17:24;;;;;;;;;;;;;;;6.16;100.00;100389.25;5053357;28;19928;-74
2022/12/22 15:19:52;;;;;;;;;;;;;;;6.11;100.00;100398.16;5056237;28;19928;-75
2022/12/22 15:22:17;;;;;;;;;;;;;;;6.08;100.00;100393.00;5045650;28;20006;-75
2022/12/22 15:24:46;;;;;;;;;;;;;;;6.05;100.00;100390.47;5026470;28;19928;-74
2022/12/22 15:27:12;;;;;;;;;;;;;;;6.04;100.00;100398.44;5056114;28;19980;-75
2022/12/22 15:29:37;;;;;;;;;;;;;;;5.99;100.00;100388.03;5036698;28;19975;-75
2022/12/22 15:32:03;;;;;;;;;;;;;;;5.95;100.00;100389.06;5035467;28;20566;-75
2022/12/22 15:34:30;;;;;;;;;;;;;;;5.91;100.00;100392.69;5058888;28;19963;-74
2022/12/22 15:36:55;;;;;;;;;;;;;;;5.87;100.00;100391.09;5041855;28;19929;-75
2022/12/22 15:39:21;;;;;;;;;;;;;;;5.82;100.00;100389.44;5058906;28;19963;-74
2022/12/22 15:41:46;;;;;;;;;;;;;;;5.77;100.00;100380.84;5056477;28;20161;-73
2022/12/22 15:44:12;;;;;;;;;;;;;;;5.72;100.00;100385.38;5033606;28;19928;-74
2022/12/22 15:46:37;;;;;;;;;;;;;;;5.68;100.00;100378.53;5055486;28;20439;-75
2022/12/22 15:49:03;;;;;;;;;;;;;;;5.62;100.00;100379.56;5039476;28;20019;-74
2022/12/22 15:51:29;;;;;;;;;;;;;;;5.58;100.00;100383.22;5040255;28;21558;-74
2022/12/22 15:53:55;;;;;;;;;;;;;;;5.55;100.00;100381.56;5035486;28;19928;-74
2022/12/22 15:56:21;;;;;;;;;;;;;;;5.51;100.00;100374.66;5027172;28;20552;-75
2022/12/22 15:58:46;;;;;;;;;;;;;;;5.48;100.00;100379.16;5054470;28;20517;-74
2022/12/22 16:01:12;;;;;;;;;;;;;;;5.45;100.00;100382.75;5034690;28;19923;-75
2022/12/22 16:03:37;;;;;;;;;;;;;;;5.40;100.00;100382.06;5056243;28;19928;-75
2022/12/22 16:06:03;;;;;;;;;;;;;;;5.35;100.00;100386.56;5055627;28;20018;-75
2022/12/22 16:08:36;;;;;;;;;;;;;;;5.29;100.00;100388.47;5059855;28;20509;-75
2022/12/22 16:11:02;;;;;;;;;;;;;;;5.25;100.00;100383.38;5056812;28;19961;-73
2022/12/22 16:13:27;;;;;;;;;;;;;;;5.22;100.00;100397.44;5035222;28;19928;-74
2022/12/22 16:15:53;;;;;;;;;;;;;;;5.18;100.00;100393.22;5057046;28;19961;-74